Time;durP1;ratioP1;P1;durP2;ratioP2;P2;SDS_P1;SDS_P2;PMS_P1;PMS_P2;Temp;Humidity;BMP_temperature;BMP_pressure;BME280_temperature;BME280_humidity;BME280_pressure;Samples;Min_cycle;Max_cycle;Signal;HPM_P1;HPM_P2
2022/10/07 00:00:58;;;;;;;9.70;5.43;;;;;;;8.01;100.00;101124.09;1665825;86;21323;-55
2022/10/07 00:03:25;;;;;;;9.17;4.80;;;;;;;8.01;100.00;101126.20;1666238;85;21651;-55
2022/10/07 00:06:01;;;;;;;7.27;4.93;;;;;;;8.00;100.00;101126.37;1668521;86;21402;-56
2022/10/07 00:08:30;;;;;;;10.20;4.77;;;;;;;8.01;100.00;101127.99;1667937;86;21620;-57
2022/10/07 00:11:08;;;;;;;9.30;3.63;;;;;;;8.08;100.00;101125.16;1668311;86;21233;-55
2022/10/07 00:13:37;;;;;;;7.83;4.00;;;;;;;8.07;100.00;101125.28;1668560;86;21266;-55
2022/10/07 00:16:16;;;;;;;7.47;4.23;;;;;;;8.08;100.00;101128.23;1668436;86;21745;-61
2022/10/07 00:18:44;;;;;;;6.77;4.10;;;;;;;8.04;100.00;101121.22;1668301;84;21291;-56
2022/10/07 00:21:14;;;;;;;10.47;4.10;;;;;;;8.05;100.00;101124.95;1668445;86;21558;-55
2022/10/07 00:23:42;;;;;;;12.03;4.10;;;;;;;8.16;100.00;101121.83;1668687;86;21905;-55
2022/10/07 00:26:12;;;;;;;6.37;3.20;;;;;;;8.19;100.00;101118.95;1668260;84;21332;-64
2022/10/07 00:28:40;;;;;;;8.83;3.83;;;;;;;8.19;100.00;101122.84;1668729;86;21485;-57
2022/10/07 00:31:11;;;;;;;6.77;4.00;;;;;;;8.25;100.00;101121.75;1668497;84;20928;-55
2022/10/07 00:33:39;;;;;;;10.13;4.00;;;;;;;8.25;100.00;101124.84;1668597;84;21251;-55
2022/10/07 00:36:12;;;;;;;7.07;4.17;;;;;;;8.22;100.00;101121.23;1667882;86;21595;-63
2022/10/07 00:38:41;;;;;;;8.17;4.27;;;;;;;8.28;100.00;101121.95;1668432;86;22363;-55
2022/10/07 00:41:12;;;;;;;11.93;4.20;;;;;;;8.26;100.00;101121.30;1668687;86;21776;-57
2022/10/07 00:43:39;;;;;;;7.87;4.25;;;;;;;8.26;100.00;101121.30;1668534;85;21226;-55
2022/10/07 00:46:13;;;;;;;6.33;4.30;;;;;;;8.23;100.00;101116.39;1668069;84;21822;-56
2022/10/07 00:48:41;;;;;;;9.03;4.50;;;;;;;8.19;100.00;101118.95;1668625;85;21360;-55
2022/10/07 00:51:09;;;;;;;8.47;4.33;;;;;;;8.11;100.00;101117.56;1668557;86;21303;-55
2022/10/07 00:53:37;;;;;;;11.57;4.17;;;;;;;8.06;100.00;101117.98;1668692;86;21187;-55
2022/10/07 00:56:05;;;;;;;7.10;4.27;;;;;;;8.05;100.00;101116.35;1667999;86;21222;-56
2022/10/07 00:58:35;;;;;;;6.00;3.93;;;;;;;8.02;100.00;101121.34;1668626;84;22114;-55
2022/10/07 01:01:01;;;;;;;8.90;4.00;;;;;;;8.00;100.00;101121.98;1668677;86;21386;-55
2022/10/07 01:03:29;;;;;;;6.90;3.90;;;;;;;8.02;100.00;101117.94;1668757;85;21197;-56
2022/10/07 01:05:56;;;;;;;7.20;3.47;;;;;;;8.02;100.00;101118.75;1673043;85;21147;-64
2022/10/07 01:08:24;;;;;;;8.13;4.27;;;;;;;8.03;100.00;101122.16;1673638;85;21437;-55
2022/10/07 01:11:12;;;;;;;6.13;3.67;;;;;;;8.04;100.00;101119.43;1673870;85;21724;-55
2022/10/07 01:13:41;;;;;;;6.27;3.47;;;;;;;8.07;100.00;101115.73;1673781;84;21180;-55
2022/10/07 01:16:31;;;;;;;5.30;3.07;;;;;;;8.13;100.00;101113.02;1672978;85;21262;-55
2022/10/07 01:19:33;;;;;;;6.20;3.70;;;;;;;8.18;100.00;101108.20;1657530;85;21594;-55
2022/10/07 01:22:32;;;;;;;9.93;4.35;;;;;;;8.20;100.00;101110.19;1673698;85;21814;-56
2022/10/07 01:25:11;;;;;;;7.17;3.63;;;;;;;8.25;100.00;101115.75;1667079;84;21359;-56
2022/10/07 01:27:41;;;;;;;8.33;4.27;;;;;;;8.29;100.00;101115.78;1673541;84;21226;-55
2022/10/07 01:30:09;;;;;;;8.23;4.37;;;;;;;8.33;100.00;101118.91;1673578;85;21321;-55
2022/10/07 01:32:45;;;;;;;8.83;4.47;;;;;;;8.33;100.00;101118.91;1673217;85;21320;-57
2022/10/07 01:35:15;;;;;;;8.50;4.67;;;;;;;8.31;100.00;101119.06;1673080;84;21306;-55
2022/10/07 01:37:47;;;;;;;7.97;4.57;;;;;;;8.30;100.00;101112.25;1673783;85;21843;-55
2022/10/07 01:40:24;;;;;;;7.53;4.47;;;;;;;8.32;100.00;101118.09;1673597;84;21152;-58
2022/10/07 01:42:51;;;;;;;7.10;3.87;;;;;;;8.31;100.00;101115.66;1673812;85;21349;-56
2022/10/07 01:45:21;;;;;;;7.07;3.70;;;;;;;8.27;100.00;101113.83;1673376;84;21272;-55
2022/10/07 01:47:48;;;;;;;7.40;3.57;;;;;;;8.29;100.00;101112.70;1673692;84;21501;-56
2022/10/07 01:50:15;;;;;;;7.33;3.50;;;;;;;8.34;100.00;101120.08;1673439;85;21275;-55
2022/10/07 01:53:28;;;;;;;7.17;4.13;;;;;;;8.44;100.00;101114.34;1673042;85;21735;-56
2022/10/07 01:56:23;;;;;;;6.50;3.13;;;;;;;8.55;100.00;101114.61;1672988;85;21310;-65
2022/10/07 01:59:28;;;;;;;6.10;3.97;;;;;;;8.63;100.00;101112.56;1669280;85;21249;-56
2022/10/07 02:02:16;;;;;;;6.70;3.63;;;;;;;8.73;100.00;101117.21;1673764;84;21312;-55
2022/10/07 02:05:04;;;;;;;6.47;3.47;;;;;;;8.85;100.00;101113.41;1667733;84;21429;-64
2022/10/07 02:07:46;;;;;;;8.27;3.43;;;;;;;8.92;100.00;101113.62;1661320;85;21924;-56
2022/10/07 02:10:36;;;;;;;7.67;3.85;;;;;;;8.95;100.00;101118.05;1661670;86;21265;-64
2022/10/07 02:13:12;;;;;;;5.67;3.50;;;;;;;8.98;100.00;101116.94;1661453;86;21077;-56
2022/10/07 02:15:52;;;;;;;6.10;3.30;;;;;;;8.97;100.00;101113.48;1661034;86;21150;-56
2022/10/07 02:18:19;;;;;;;6.97;3.40;;;;;;;9.00;100.00;101114.98;1661382;86;21300;-56
2022/10/07 02:20:49;;;;;;;7.10;3.37;;;;;;;9.03;100.00;101113.88;1661589;85;21018;-56
2022/10/07 02:23:17;;;;;;;6.43;3.23;;;;;;;9.03;100.00;101120.38;1661534;86;21247;-55
2022/10/07 02:25:47;;;;;;;6.87;3.07;;;;;;;8.97;100.00;101112.19;1660922;86;21747;-57
2022/10/07 02:28:16;;;;;;;6.83;3.50;;;;;;;9.07;100.00;101113.90;1661520;85;21333;-56
2022/10/07 02:30:45;;;;;;;6.20;3.87;;;;;;;9.10;100.00;101118.80;1661412;86;21201;-55
2022/10/07 02:33:12;;;;;;;7.90;3.67;;;;;;;9.14;100.00;101114.44;1661464;86;21336;-56
2022/10/07 02:35:48;;;;;;;6.30;3.40;;;;;;;9.12;100.00;101111.16;1660830;86;21213;-62
2022/10/07 02:38:16;;;;;;;6.77;3.37;;;;;;;9.11;100.00;101116.52;1661482;86;21329;-56
2022/10/07 02:40:59;;;;;;;7.67;3.33;;;;;;;9.21;100.00;101123.76;1661572;86;21355;-56
2022/10/07 02:43:47;;;;;;;6.12;3.27;;;;;;;9.34;100.00;101116.34;1661360;86;21264;-56
2022/10/07 02:46:21;;;;;;;7.57;3.70;;;;;;;9.38;100.00;101119.45;1660880;86;21025;-55
2022/10/07 02:49:02;;;;;;;7.80;4.13;;;;;;;9.36;100.00;101115.72;1661026;86;21217;-65
2022/10/07 02:51:47;;;;;;;7.17;3.40;;;;;;;9.40;100.00;101117.53;1661315;86;21308;-56
2022/10/07 02:54:18;;;;;;;9.93;4.33;;;;;;;9.35;100.00;101111.95;1636572;86;21388;-56
2022/10/07 02:56:46;;;;;;;7.03;4.30;;;;;;;9.28;100.00;101116.98;1661020;85;21793;-56
2022/10/07 02:59:13;;;;;;;6.63;4.27;;;;;;;9.14;100.00;101117.53;1661345;86;21377;-55
2022/10/07 03:01:44;;;;;;;8.33;4.77;;;;;;;9.13;100.00;101113.27;1661557;85;21339;-56
2022/10/07 03:04:12;;;;;;;8.00;5.05;;;;;;;9.04;100.00;101120.21;1661783;85;21064;-65
2022/10/07 03:06:41;;;;;;;11.70;6.33;;;;;;;8.85;100.00;101126.41;1668161;84;20969;-57
2022/10/07 03:09:08;;;;;;;9.33;5.43;;;;;;;8.65;100.00;101123.64;1668233;84;21644;-56
2022/10/07 03:11:37;;;;;;;12.33;5.73;;;;;;;8.54;100.00;101132.47;1668579;86;21207;-56
2022/10/07 03:14:04;;;;;;;10.13;5.47;;;;;;;8.36;100.00;101135.50;1668486;86;21317;-55
2022/10/07 03:16:33;;;;;;;10.07;5.83;;;;;;;8.26;100.00;101136.88;1667994;86;21368;-56
2022/10/07 03:19:02;;;;;;;8.53;5.20;;;;;;;8.13;100.00;101133.80;1668705;86;21789;-56
2022/10/07 03:21:34;;;;;;;9.47;5.40;;;;;;;7.98;100.00;101129.57;1667315;85;21584;-56
2022/10/07 03:24:06;;;;;;;10.13;5.73;;;;;;;7.88;100.00;101130.09;1668292;86;21767;-56
2022/10/07 03:26:37;;;;;;;9.18;4.97;;;;;;;7.80;100.00;101125.62;1668024;85;21361;-56
2022/10/07 03:29:05;;;;;;;7.67;4.73;;;;;;;7.73;100.00;101133.67;1668189;84;21009;-56
2022/10/07 03:31:32;;;;;;;7.80;4.23;;;;;;;7.70;100.00;101131.34;1668330;84;21302;-55
2022/10/07 03:34:00;;;;;;;6.70;4.33;;;;;;;7.69;100.00;101127.09;1668494;86;21271;-56
2022/10/07 03:36:28;;;;;;;9.73;5.22;;;;;;;7.69;100.00;101133.59;1667870;86;21205;-57
2022/10/07 03:38:56;;;;;;;8.83;4.73;;;;;;;7.68;100.00;101133.25;1668169;84;21448;-56
2022/10/07 03:41:23;;;;;;;17.00;6.50;;;;;;;7.62;100.00;101137.73;1648592;86;21753;-57
2022/10/07 03:43:52;;;;;;;6.58;4.00;;;;;;;7.65;100.00;101136.13;1648714;86;21214;-55
2022/10/07 03:46:22;;;;;;;7.13;4.33;;;;;;;7.71;100.00;101135.09;1668162;84;21137;-60
2022/10/07 03:48:51;;;;;;;7.20;4.50;;;;;;;7.86;100.00;101132.03;1668248;84;21638;-57
2022/10/07 03:51:19;;;;;;;7.77;4.53;;;;;;;8.07;100.00;101136.52;1668318;86;21281;-57
2022/10/07 03:53:47;;;;;;;7.57;4.93;;;;;;;8.35;100.00;101134.69;1668455;86;21128;-55
2022/10/07 03:56:15;;;;;;;8.23;5.03;;;;;;;8.76;100.00;101129.92;1668443;84;21816;-66
2022/10/07 03:58:43;;;;;;;8.57;4.40;;;;;;;9.16;100.00;101122.89;1668380;84;21304;-57
2022/10/07 04:01:15;;;;;;;8.07;4.70;;;;;;;9.56;100.00;101124.12;1668386;86;21332;-56
2022/10/07 04:03:45;;;;;;;7.37;4.50;;;;;;;10.04;100.00;101123.16;1668077;84;21238;-55
2022/10/07 04:06:12;;;;;;;11.17;4.77;;;;;;;10.66;100.00;101131.47;1668313;85;21258;-56
2022/10/07 04:08:43;;;;;;;8.97;5.17;;;;;;;11.25;100.00;101120.83;1667880;86;21281;-57
2022/10/07 04:11:10;;;;;;;12.63;4.27;;;;;;;11.82;100.00;101124.11;1668602;86;22337;-57
2022/10/07 04:13:39;;;;;;;6.00;3.80;;;;;;;12.45;100.00;101118.39;1668195;86;21653;-56
2022/10/07 04:16:08;;;;;;;6.83;4.43;;;;;;;13.05;100.00;101114.16;1668644;86;21687;-57
2022/10/07 04:18:35;;;;;;;7.17;4.97;;;;;;;13.53;100.00;101108.94;1668223;86;20996;-59
2022/10/07 04:21:04;;;;;;;7.03;4.50;;;;;;;14.06;100.00;101117.95;1668544;86;21047;-57
2022/10/07 04:23:33;;;;;;;9.70;4.80;;;;;;;14.51;100.00;101119.97;1668521;84;21148;-57
2022/10/07 04:26:00;;;;;;;6.30;4.40;;;;;;;14.95;100.00;101122.84;1668506;86;20949;-57
2022/10/07 04:28:28;;;;;;;9.53;4.73;;;;;;;15.38;100.00;101122.25;1668060;84;20969;-65
2022/10/07 04:31:03;;;;;;;7.20;4.70;;;;;;;15.81;100.00;101118.13;1668490;85;21071;-57
2022/10/07 04:33:32;;;;;;;7.60;4.93;;;;;;;16.09;100.00;101120.64;1668832;86;20953;-57
2022/10/07 04:36:04;;;;;;;9.80;4.50;;;;;;;16.15;100.00;101126.95;1668475;86;21928;-56
2022/10/07 04:38:31;;;;;;;11.67;4.60;;;;;;;15.95;100.00;101129.52;1668238;86;21013;-56
2022/10/07 04:41:03;;;;;;;8.93;5.10;;;;;;;15.65;100.00;101135.53;1668773;86;21534;-56
2022/10/07 04:43:32;;;;;;;8.90;5.30;;;;;;;15.32;100.00;101140.08;1668681;86;20917;-57
2022/10/07 04:46:07;;;;;;;7.33;4.50;;;;;;;15.01;100.00;101137.34;1668427;86;20949;-63
2022/10/07 04:48:37;;;;;;;8.80;5.67;;;;;;;14.74;100.00;101146.81;1668686;86;21098;-56
2022/10/07 04:51:06;;;;;;;6.50;4.17;;;;;;;14.58;100.00;101145.73;1668396;84;21014;-56
2022/10/07 04:53:35;;;;;;;8.63;4.37;;;;;;;14.46;100.00;101144.59;1668599;86;21585;-56
2022/10/07 04:56:02;;;;;;;7.97;4.93;;;;;;;14.31;100.00;101149.88;1648363;86;21020;-65
2022/10/07 04:58:30;;;;;;;9.47;5.20;;;;;;;14.21;100.00;101152.81;1668270;86;21504;-57
2022/10/07 05:00:58;;;;;;;11.27;6.57;;;;;;;14.14;100.00;101157.17;1668434;86;21551;-57
2022/10/07 05:03:27;;;;;;;17.67;11.73;;;;;;;14.10;100.00;101162.47;1668543;86;21620;-55
2022/10/07 05:05:56;;;;;;;14.00;10.83;;;;;;;14.11;100.00;101168.02;1671341;84;20921;-56
2022/10/07 05:08:23;;;;;;;9.63;7.90;;;;;;;14.11;100.00;101167.52;1673177;84;21475;-58
2022/10/07 05:10:55;;;;;;;9.40;5.93;;;;;;;14.15;100.00;101171.09;1673913;84;22151;-56
2022/10/07 05:13:25;;;;;;;9.10;5.13;;;;;;;14.10;100.00;101167.70;1646358;85;21952;-56
2022/10/07 05:15:59;;;;;;;6.65;4.17;;;;;;;14.11;100.00;101172.76;1646413;84;21045;-61
2022/10/07 05:18:26;;;;;;;10.17;4.97;;;;;;;14.17;100.00;101176.47;1673664;85;21312;-56
2022/10/07 05:20:56;;;;;;;8.23;5.00;;;;;;;14.25;100.00;101174.23;1673747;85;21622;-55
2022/10/07 05:23:25;;;;;;;6.77;4.60;;;;;;;14.42;100.00;101166.44;1673493;85;20968;-56
2022/10/07 05:26:03;;;;;;;7.40;4.83;;;;;;;14.59;100.00;101171.81;1673446;85;21255;-59
2022/10/07 05:28:30;;;;;;;8.50;4.80;;;;;;;14.78;100.00;101176.94;1673565;85;21866;-55
2022/10/07 05:31:11;;;;;;;7.43;4.90;;;;;;;14.89;100.00;101182.66;1673609;85;21031;-55
2022/10/07 05:33:39;;;;;;;11.95;5.28;;;;;;;15.04;100.00;101178.17;1673838;84;20933;-65
2022/10/07 05:36:07;;;;;;;9.40;5.03;;;;;;;15.20;100.00;101188.39;1673199;85;20996;-56
2022/10/07 05:38:35;;;;;;;7.30;4.30;;;;;;;15.40;100.00;101187.72;1646125;85;21324;-58
2022/10/07 05:41:06;;;;;;;7.87;4.50;;;;;;;15.66;100.00;101185.29;1673700;85;21023;-55
2022/10/07 05:43:36;;;;;;;7.92;4.83;;;;;;;16.00;100.00;101136.31;1673502;85;20992;-56
2022/10/07 05:46:07;;;;;;;8.53;4.27;;;;;;;16.35;100.00;101191.45;1673425;85;21530;-55
2022/10/07 05:48:38;;;;;;;8.03;4.80;;;;;;;16.90;100.00;101185.63;1673919;85;20964;-55
2022/10/07 05:51:08;;;;;;;5.83;4.00;;;;;;;17.65;100.00;101183.50;1673633;85;21268;-56
2022/10/07 05:53:39;;;;;;;5.70;3.73;;;;;;;18.51;100.00;101184.48;1673311;85;21019;-56
2022/10/07 05:56:07;;;;;;;6.77;4.27;;;;;;;19.26;100.00;101190.36;1673181;85;21030;-56
2022/10/07 05:58:35;;;;;;;7.30;4.27;;;;;;;19.97;100.00;101184.54;1673300;85;21072;-56
2022/10/07 06:01:05;;;;;;;6.63;4.20;;;;;;;20.74;100.00;101179.94;1673688;85;21037;-56
2022/10/07 06:03:32;;;;;;;6.50;4.07;;;;;;;21.48;100.00;101178.50;1673551;85;21238;-56
2022/10/07 06:06:00;;;;;;;7.60;4.93;;;;;;;22.13;100.00;101173.95;1670911;85;21032;-65
2022/10/07 06:08:28;;;;;;;6.67;5.07;;;;;;;22.66;90.18;101176.24;1668475;86;21059;-56
2022/10/07 06:13:53;;;;;;;5.97;3.85;;;;;;;23.57;82.66;101173.87;1667830;86;20961;-62
2022/10/07 06:16:22;;;;;;;6.50;4.47;;;;;;;24.23;75.87;101177.30;1668410;84;21452;-58
2022/10/07 06:18:51;;;;;;;7.75;4.45;;;;;;;24.83;70.65;101174.11;1668399;86;21595;-56
2022/10/07 06:21:26;;;;;;;7.00;4.20;;;;;;;25.34;65.27;101173.91;1668600;86;20964;-56
2022/10/07 06:23:56;;;;;;;6.40;4.47;;;;;;;25.64;61.49;101168.45;1667735;86;21020;-57
2022/10/07 06:26:25;;;;;;;5.37;3.98;;;;;;;26.07;59.58;101173.17;1648837;85;21009;-56
2022/10/07 06:28:52;;;;;;;7.00;3.58;;;;;;;26.58;57.08;101174.58;1648802;85;21270;-57
2022/10/07 06:31:21;;;;;;;6.62;3.27;;;;;;;27.00;54.25;101174.27;1668523;84;20988;-56
2022/10/07 06:33:49;;;;;;;5.03;3.50;;;;;;;27.27;50.82;101183.33;1648337;86;21033;-57
2022/10/07 06:36:16;;;;;;;5.45;3.50;;;;;;;27.53;49.95;101182.71;1668495;86;21087;-56
2022/10/07 06:38:46;;;;;;;8.35;4.08;;;;;;;27.74;48.67;101178.63;1668418;86;21029;-56
2022/10/07 06:41:14;;;;;;;8.50;4.10;;;;;;;27.87;47.61;101182.05;1668593;86;21790;-56
2022/10/07 06:43:42;;;;;;;6.37;4.03;;;;;;;28.08;46.46;101183.55;1667842;86;20965;-59
2022/10/07 06:46:16;;;;;;;5.65;3.33;;;;;;;28.31;45.13;101188.76;1668208;85;21083;-56
2022/10/07 06:48:46;;;;;;;6.53;3.50;;;;;;;28.52;45.03;101189.96;1671726;85;20977;-56
2022/10/07 06:51:18;;;;;;;5.95;3.72;;;;;;;28.86;44.23;101194.76;1668583;84;20997;-56
2022/10/07 06:53:53;;;;;;;5.03;3.40;;;;;;;29.00;43.18;101190.11;1671222;85;21895;-58
2022/10/07 06:56:20;;;;;;;6.37;3.70;;;;;;;29.13;42.32;101187.28;1668360;86;21027;-57
2022/10/07 06:58:48;;;;;;;6.33;4.60;;;;;;;29.19;42.52;101195.01;1668507;84;20985;-56
2022/10/07 07:01:17;;;;;;;12.85;11.65;;;;;;;29.37;42.42;101188.11;1668428;84;20960;-56
2022/10/07 07:03:44;;;;;;;6.08;4.70;;;;;;;29.62;42.43;101191.58;1668483;86;21491;-57
2022/10/07 07:06:12;;;;;;;7.20;3.50;;;;;;;29.90;41.61;101187.20;1668290;84;21181;-56
2022/10/07 07:08:40;;;;;;;5.50;3.33;;;;;;;30.12;40.63;101183.91;1668204;86;20932;-56
2022/10/07 07:13:57;;;;;;;8.53;4.37;;;;;;;30.36;39.93;101186.55;1668160;86;21044;-56
2022/10/07 07:16:25;;;;;;;5.92;4.22;;;;;;;30.37;39.14;101182.20;1668244;84;21131;-57
2022/10/07 07:18:55;;;;;;;7.37;3.42;;;;;;;30.38;39.73;101191.07;1668360;86;21338;-57
2022/10/07 07:21:23;;;;;;;5.33;3.45;;;;;;;30.54;39.10;101182.47;1668497;86;21035;-57
2022/10/07 07:23:50;;;;;;;6.05;3.80;;;;;;;30.65;39.37;101182.28;1667823;86;21078;-60
2022/10/07 07:26:18;;;;;;;4.95;3.50;;;;;;;30.84;38.68;101184.42;1668132;84;21401;-57
2022/10/07 07:29:01;;;;;;;4.62;3.42;;;;;;;30.97;38.11;101188.22;1668685;84;21490;-57
2022/10/07 07:31:32;;;;;;;5.97;3.30;;;;;;;31.01;38.21;101186.52;1668643;86;21158;-65
2022/10/07 07:34:01;;;;;;;5.22;3.10;;;;;;;31.06;38.10;101188.31;1668046;84;21594;-56
2022/10/07 07:36:30;;;;;;;4.70;2.90;;;;;;;31.07;37.39;101185.89;1668342;84;21329;-57
2022/10/07 07:39:00;;;;;;;7.15;5.08;;;;;;;31.01;38.00;101185.17;1668522;86;20997;-58
2022/10/07 07:41:33;;;;;;;6.67;4.20;;;;;;;31.06;37.56;101189.11;1668519;86;21486;-57
2022/10/07 07:44:04;;;;;;;6.53;4.60;;;;;;;30.73;37.04;101187.02;1667868;86;21239;-57
2022/10/07 07:46:35;;;;;;;7.60;3.87;;;;;;;30.09;38.36;101183.97;1668476;86;21265;-56
2022/10/07 07:49:02;;;;;;;6.35;3.90;;;;;;;29.87;38.73;101183.74;1668390;86;20965;-57
2022/10/07 07:51:32;;;;;;;5.78;3.75;;;;;;;29.68;39.35;101179.14;1668628;86;21574;-56
2022/10/07 07:53:59;;;;;;;5.72;3.87;;;;;;;29.71;39.64;101189.33;1667985;84;21020;-56
2022/10/07 07:56:34;;;;;;;7.03;3.92;;;;;;;29.70;39.47;101186.39;1668480;86;21410;-57
2022/10/07 07:58:59;;;;;;;7.15;4.12;;;;;;;29.75;39.40;101179.59;1667884;86;20957;-57
2022/10/07 08:01:30;;;;;;;5.47;3.83;;;;;;;29.90;39.92;101177.80;1668561;86;20965;-57
2022/10/07 08:03:56;;;;;;;6.55;4.20;;;;;;;29.93;38.75;101179.87;1667889;85;20976;-59
2022/10/07 08:06:26;;;;;;;5.70;3.60;;;;;;;29.65;40.47;101180.27;1669931;85;21399;-56
2022/10/07 08:08:56;;;;;;;5.35;3.70;;;;;;;29.73;40.25;101179.62;1673974;85;21828;-56
2022/10/07 08:11:23;;;;;;;8.45;4.22;;;;;;;29.97;40.35;101179.58;1673760;85;21055;-56
2022/10/07 08:13:51;;;;;;;7.78;3.60;;;;;;;29.98;39.60;101173.90;1673130;85;21079;-58
2022/10/07 08:16:21;;;;;;;6.00;3.90;;;;;;;29.78;39.76;101177.67;1673376;85;21074;-56
2022/10/07 08:18:52;;;;;;;4.83;3.20;;;;;;;29.91;40.34;101178.04;1673808;85;21518;-56
2022/10/07 08:21:21;;;;;;;5.15;3.55;;;;;;;30.08;40.69;101173.48;1673617;84;21229;-56
2022/10/07 08:23:57;;;;;;;3.70;3.12;;;;;;;30.38;39.72;101177.62;1673264;85;20917;-61
2022/10/07 08:26:27;;;;;;;4.78;3.05;;;;;;;30.53;38.50;101174.68;1673548;85;21106;-56
2022/10/07 08:28:56;;;;;;;5.55;3.10;;;;;;;30.19;38.01;101177.13;1673808;85;21080;-56
2022/10/07 08:31:26;;;;;;;4.17;3.22;;;;;;;29.72;38.97;101172.66;1673592;85;21043;-56
2022/10/07 08:33:55;;;;;;;6.47;3.80;;;;;;;29.67;40.65;101170.84;1673466;85;21589;-57
2022/10/07 08:36:24;;;;;;;6.72;3.27;;;;;;;29.78;40.24;101170.16;1673582;85;21590;-56
2022/10/07 08:38:51;;;;;;;6.08;3.40;;;;;;;29.90;40.20;101172.42;1673762;85;21616;-56
2022/10/07 08:41:32;;;;;;;5.33;3.58;;;;;;;29.87;39.87;101175.13;1673632;85;20997;-56
2022/10/07 08:44:19;;;;;;;5.50;3.47;;;;;;;29.83;39.26;101163.91;1672603;84;22027;-56
2022/10/07 08:46:57;;;;;;;6.80;3.65;;;;;;;29.54;40.04;101169.61;1673825;85;21181;-57
2022/10/07 08:49:53;;;;;;;5.45;3.55;;;;;;;29.36;39.49;101173.08;1673020;85;20948;-57
2022/10/07 08:52:39;;;;;;;5.45;4.20;;;;;;;29.12;40.23;101173.06;1668101;85;20987;-57
2022/10/07 08:55:37;;;;;;;5.40;4.10;;;;;;;29.01;40.71;101171.57;1673661;85;21151;-56
2022/10/07 08:58:21;;;;;;;5.50;4.20;;;;;;;28.91;41.10;101179.72;1673549;84;21037;-56
2022/10/07 09:01:14;;;;;;;6.83;4.40;;;;;;;28.86;40.78;101171.95;1673813;85;21266;-59
2022/10/07 09:04:05;;;;;;;6.42;3.80;;;;;;;28.68;41.29;101171.34;1673183;84;21029;-56
2022/10/07 09:06:51;;;;;;;5.40;3.92;;;;;;;28.58;41.31;101174.89;1672382;85;21040;-55
2022/10/07 09:09:52;;;;;;;7.33;3.90;;;;;;;28.53;41.40;101160.73;1668324;84;21535;-55
2022/10/07 09:12:21;;;;;;;7.12;4.08;;;;;;;28.61;42.33;101166.84;1668621;85;20945;-56
2022/10/07 09:14:51;;;;;;;7.12;3.85;;;;;;;28.72;42.64;101164.87;1668110;86;21235;-57
2022/10/07 09:17:38;;;;;;;5.00;3.73;;;;;;;28.83;41.77;101168.52;1668910;86;20984;-56
2022/10/07 09:20:15;;;;;;;7.00;4.00;;;;;;;28.76;40.75;101159.19;1668483;84;20965;-58
2022/10/07 09:22:43;;;;;;;5.60;4.12;;;;;;;28.54;41.27;101167.70;1668530;86;21050;-56
2022/10/07 09:25:18;;;;;;;5.42;3.98;;;;;;;28.51;42.10;101167.70;1668647;86;20981;-56
2022/10/07 09:27:45;;;;;;;6.03;3.52;;;;;;;28.58;41.33;101170.08;1668439;86;21285;-56
2022/10/07 09:30:13;;;;;;;11.38;4.35;;;;;;;28.36;41.81;101169.94;1668022;86;21017;-60
2022/10/07 09:32:46;;;;;;;5.30;4.10;;;;;;;28.32;41.71;101164.08;1668535;86;21103;-57
2022/10/07 09:35:16;;;;;;;5.67;4.62;;;;;;;28.05;42.44;101159.98;1668734;86;21104;-56
2022/10/07 09:38:02;;;;;;;6.97;4.62;;;;;;;27.72;42.74;101160.67;1668590;85;21303;-56
2022/10/07 09:40:34;;;;;;;5.03;3.85;;;;;;;27.48;43.41;101166.67;1668595;86;21240;-55
2022/10/07 09:43:05;;;;;;;5.70;3.87;;;;;;;27.29;44.57;101166.47;1668614;86;20913;-56
2022/10/07 09:45:33;;;;;;;6.78;4.40;;;;;;;27.31;43.65;101162.17;1667958;85;21100;-57
2022/10/07 09:48:06;;;;;;;5.62;4.28;;;;;;;27.03;44.09;101161.69;1667945;86;21065;-57
2022/10/07 09:50:41;;;;;;;6.33;4.75;;;;;;;26.77;45.78;101159.59;1668413;86;20956;-56
2022/10/07 09:53:24;;;;;;;6.67;3.90;;;;;;;26.89;46.24;101160.64;1668340;86;21134;-56
2022/10/07 09:55:52;;;;;;;5.25;4.15;;;;;;;26.79;45.97;101160.13;1667951;86;20965;-57
2022/10/07 09:58:30;;;;;;;5.53;3.80;;;;;;;26.85;45.57;101159.58;1668623;86;21428;-56
2022/10/07 10:01:00;;;;;;;4.97;3.60;;;;;;;27.01;45.92;101161.69;1668388;86;20965;-57
2022/10/07 10:03:31;;;;;;;5.45;3.87;;;;;;;27.27;45.54;101167.27;1668611;86;21019;-66
2022/10/07 10:06:00;;;;;;;5.12;4.08;;;;;;;27.40;45.11;101161.34;1668526;86;21801;-57
2022/10/07 10:08:32;;;;;;;4.67;3.45;;;;;;;27.43;44.87;101157.84;1668343;85;20980;-57
2022/10/07 10:11:03;;;;;;;6.35;3.98;;;;;;;27.39;45.47;101154.40;1668574;86;21000;-57
2022/10/07 10:13:37;;;;;;;5.40;3.80;;;;;;;27.36;45.49;101157.62;1667756;86;20929;-58
2022/10/07 10:16:33;;;;;;;5.60;3.62;;;;;;;27.22;45.21;101158.47;1668664;86;21988;-56
2022/10/07 10:19:02;;;;;;;4.00;3.30;;;;;;;27.22;45.08;101151.23;1670641;84;21797;-57
2022/10/07 10:21:34;;;;;;;6.47;3.52;;;;;;;27.22;43.81;101145.08;1668613;86;20999;-56
2022/10/07 10:24:05;;;;;;;4.58;3.35;;;;;;;26.77;43.86;101140.86;1668354;86;21092;-57
2022/10/07 10:27:02;;;;;;;;;;;;;;;26.56;45.87;101144.11;1670655;85;21080;-57
2022/10/07 10:29:48;;;;;;;3.85;2.87;;;;;;;26.70;46.92;101143.00;1668469;86;20114;-57
2022/10/07 10:32:32;;;;;;;4.55;2.70;;;;;;;26.65;44.42;101139.81;1668216;86;21275;-60
2022/10/07 10:35:15;;;;;;;4.37;3.00;;;;;;;26.58;45.39;101132.59;1668520;86;21487;-57
2022/10/07 10:38:15;;;;;;;3.40;2.30;;;;;;;26.75;45.38;101133.66;1668578;86;20976;-66
2022/10/07 10:41:03;;;;;;;4.47;2.70;;;;;;;27.01;43.95;101138.94;1668621;86;21056;-58
2022/10/07 10:43:36;;;;;;;4.30;2.58;;;;;;;26.91;43.08;101133.89;1665012;86;21008;-57
2022/10/07 10:46:29;;;;;;;4.15;2.52;;;;;;;26.60;43.14;101133.67;1668562;86;21222;-57
2022/10/07 10:49:26;;;;;;;5.33;3.80;;;;;;;26.30;44.75;101134.45;1667733;85;21029;-56
2022/10/07 10:52:36;;;;;;;3.57;2.30;;;;;;;26.04;44.76;101130.94;1672164;85;21128;-60
2022/10/07 10:55:18;;;;;;;3.23;2.20;;;;;;;25.79;44.87;101131.68;1672373;85;21132;-58
2022/10/07 10:58:03;;;;;;;3.60;2.20;;;;;;;25.48;46.94;101137.69;1668812;84;20957;-64
2022/10/07 11:00:35;;;;;;;3.63;2.33;;;;;;;25.39;47.99;101137.12;1668322;86;21795;-59
2022/10/07 11:03:27;;;;;;;3.60;2.30;;;;;;;25.43;47.71;101147.02;1667878;86;20929;-58
2022/10/07 11:05:55;;;;;;;4.03;2.73;;;;;;;25.26;47.79;101142.39;1668322;86;21044;-58
2022/10/07 11:08:32;;;;;;;4.37;2.60;;;;;;;24.96;48.54;101137.14;1672227;85;21040;-57
2022/10/07 11:11:10;;;;;;;6.07;3.23;;;;;;;24.80;49.46;101138.62;1673701;85;20921;-58
2022/10/07 11:13:53;;;;;;;5.43;2.50;;;;;;;24.85;50.11;101134.14;1673591;85;21857;-57
2022/10/07 11:16:25;;;;;;;4.17;2.50;;;;;;;25.24;50.68;101126.65;1673386;85;20945;-58
2022/10/07 11:19:00;;;;;;;4.33;2.67;;;;;;;25.71;50.51;101127.63;1673120;85;20960;-60
2022/10/07 11:21:40;;;;;;;3.03;2.30;;;;;;;26.01;50.60;101127.45;1673468;85;21013;-57
2022/10/07 11:24:18;;;;;;;3.63;2.77;;;;;;;25.92;48.84;101129.31;1673433;85;21020;-58
2022/10/07 11:26:56;;;;;;;7.03;2.90;;;;;;;25.36;49.66;101133.64;1673445;85;21174;-57
2022/10/07 11:29:58;;;;;;;4.60;2.93;;;;;;;24.85;51.55;101135.98;1673364;85;21051;-57
2022/10/07 11:32:40;;;;;;;4.17;3.08;;;;;;;24.41;52.15;101133.00;1673755;85;21352;-57
2022/10/07 11:35:35;;;;;;;5.00;2.50;;;;;;;23.81;54.01;101140.63;1673508;85;21012;-58
2022/10/07 11:38:13;;;;;;;5.63;2.80;;;;;;;23.41;56.72;101147.06;1673452;85;21099;-57
2022/10/07 11:40:59;;;;;;;5.20;3.57;;;;;;;23.41;62.51;101144.41;1673658;85;21238;-59
2022/10/07 11:43:32;;;;;;;4.43;3.30;;;;;;;23.77;64.80;101140.33;1673498;85;21007;-58
2022/10/07 11:46:11;;;;;;;4.33;2.90;;;;;;;24.06;63.23;101146.77;1673665;85;21502;-58
2022/10/07 11:48:42;;;;;;;6.10;2.63;;;;;;;24.09;60.26;101144.11;1673498;84;20989;-61
2022/10/07 11:51:22;;;;;;;3.73;2.70;;;;;;;23.98;60.03;101147.19;1673098;84;20925;-58
2022/10/07 11:53:49;;;;;;;5.30;2.80;;;;;;;23.75;59.54;101145.61;1672565;85;21875;-58
2022/10/07 11:56:24;;;;;;;3.50;2.47;;;;;;;23.25;59.92;101147.36;1623751;85;20987;-57
2022/10/07 11:59:03;;;;;;;4.23;2.80;;;;;;;22.97;63.23;101150.97;1673191;85;20917;-57